createdAt,value
2019-02-12T00:02:17.430Z,96495.79
2019-02-12T00:04:50.539Z,96490.64
2019-02-12T00:07:24.754Z,96492.39
2019-02-12T00:09:56.537Z,96494.34
2019-02-12T00:12:28.509Z,96489.84
2019-02-12T00:14:59.723Z,96497.64
2019-02-12T00:17:33.695Z,96488.08
2019-02-12T00:20:07.478Z,96492.36
2019-02-12T00:22:40.573Z,96486.97
2019-02-12T00:25:12.559Z,96481.33
2019-02-12T00:27:44.175Z,96484.55
2019-02-12T00:30:15.633Z,96485.95
2019-02-12T00:32:47.598Z,96486.98
2019-02-12T00:35:21.593Z,96482.38
2019-02-12T00:37:52.773Z,96497.87
2019-02-12T00:40:23.985Z,96488.08
2019-02-12T00:42:57.599Z,96494.51
2019-02-12T00:45:28.812Z,96495.81
2019-02-12T00:48:00.020Z,96498.59
2019-02-12T00:50:31.840Z,96499.39
2019-02-12T00:53:03.864Z,96494.12
2019-02-12T00:55:35.669Z,96507.64
2019-02-12T00:58:06.974Z,96516.85
2019-02-12T01:00:38.907Z,96512.13
2019-02-12T01:03:11.898Z,96515.97
2019-02-12T01:05:44.696Z,96525.27
2019-02-12T01:08:16.912Z,96520.27
2019-02-12T01:10:48.181Z,96524.61
2019-02-12T01:13:21.925Z,96527.45
2019-02-12T01:15:53.118Z,96524.27
2019-02-12T01:18:28.482Z,96529.86
2019-02-12T01:21:00.881Z,96532.19
2019-02-12T01:23:34.791Z,96533.87
2019-02-12T01:26:10.549Z,96533.70
2019-02-12T01:28:42.622Z,96540.31
2019-02-12T01:31:15.003Z,96531.11
2019-02-12T01:33:48.040Z,96540.40
2019-02-12T01:36:21.531Z,96544.33
2019-02-12T01:38:58.524Z,96544.03
2019-02-12T01:41:32.075Z,96546.13
2019-02-12T01:44:03.335Z,96545.55
2019-02-12T01:46:36.126Z,96551.84
2019-02-12T01:49:10.195Z,96551.93
2019-02-12T01:51:42.907Z,96549.41
2019-02-12T01:54:19.475Z,96552.22
2019-02-12T01:56:51.076Z,96559.42
2019-02-12T01:59:24.258Z,96565.98
2019-02-12T02:01:55.455Z,96565.80
2019-02-12T02:04:29.017Z,96570.44
2019-02-12T02:07:00.218Z,96568.75
2019-02-12T02:09:34.847Z,96579.80
2019-02-12T02:12:10.077Z,96576.27
2019-02-12T02:14:42.008Z,96575.61
2019-02-12T02:17:16.025Z,96576.45
2019-02-12T02:19:47.235Z,96584.63
2019-02-12T02:22:18.446Z,96573.63
2019-02-12T02:24:52.141Z,96572.36
2019-02-12T02:27:24.180Z,96585.83
2019-02-12T02:30:21.230Z,96594.73
2019-02-12T02:32:52.426Z,96587.58
2019-02-12T02:35:23.681Z,96595.93
2019-02-12T02:37:57.167Z,96601.19
2019-02-12T02:40:31.222Z,96619.86
2019-02-12T02:43:05.137Z,96592.52
2019-02-12T02:45:40.677Z,96588.19
2019-02-12T02:48:13.176Z,96593.29
2019-02-12T02:50:44.718Z,96604.28
2019-02-12T02:53:18.298Z,96596.53
2019-02-12T02:55:53.755Z,96599.78
2019-02-12T02:58:26.300Z,96606.77
2019-02-12T03:01:00.273Z,96618.75
2019-02-12T03:03:34.123Z,96620.95
2019-02-12T03:06:05.939Z,96619.16
2019-02-12T03:08:39.440Z,96626.23
2019-02-12T03:11:12.274Z,96628.36
2019-02-12T03:13:44.477Z,96628.48
2019-02-12T03:16:19.270Z,96637.81
2019-02-12T03:18:53.395Z,96634.14
2019-02-12T03:21:28.219Z,96630.29
2019-02-12T03:24:02.479Z,96639.35
2019-02-12T03:26:36.497Z,96631.05
2019-02-12T03:29:10.714Z,96636.94
2019-02-12T03:31:44.574Z,96648.66
2019-02-12T03:34:15.764Z,96646.80
2019-02-12T03:36:46.985Z,96646.69
2019-02-12T03:39:18.203Z,96656.18
2019-02-12T03:41:51.420Z,96654.94
2019-02-12T03:44:25.516Z,96668.40
2019-02-12T03:46:56.746Z,96663.92
2019-02-12T03:49:30.393Z,96663.22
2019-02-12T03:52:12.598Z,96664.55
2019-02-12T03:54:37.517Z,96670.91
2019-02-12T03:57:09.827Z,96674.88
2019-02-12T03:59:41.930Z,96687.20
2019-02-12T04:02:15.783Z,96688.39
2019-02-12T04:04:47.497Z,96675.77
2019-02-12T04:07:19.511Z,96687.63
2019-02-12T04:09:52.057Z,96688.05
2019-02-12T04:12:25.735Z,96684.89
2019-02-12T04:14:57.678Z,96691.55
2019-02-12T04:17:31.275Z,96686.66
2019-02-12T04:20:04.704Z,96697.14
2019-02-12T04:22:37.535Z,96692.37
2019-02-12T04:25:10.879Z,96692.58
2019-02-12T04:27:44.385Z,96687.47
2019-02-12T04:30:20.359Z,96702.47
2019-02-12T04:32:52.756Z,96704.83
2019-02-12T04:35:23.985Z,96706.19
2019-02-12T04:37:55.274Z,96705.95
2019-02-12T04:40:29.653Z,96717.92
2019-02-12T04:43:02.780Z,96722.47
2019-02-12T04:45:36.736Z,96723.01
2019-02-12T04:48:10.707Z,96718.39
2019-02-12T04:50:43.657Z,96724.00
2019-02-12T04:53:15.689Z,96730.62
2019-02-12T04:55:48.502Z,96726.63
2019-02-12T04:58:21.894Z,96726.80
2019-02-12T05:00:54.736Z,96725.03
2019-02-12T05:03:25.944Z,96734.30
2019-02-12T05:05:58.456Z,96739.35
2019-02-12T05:09:08.549Z,96743.25
2019-02-12T05:11:42.187Z,96751.10
2019-02-12T05:14:14.961Z,96751.03
2019-02-12T05:16:47.910Z,96751.56
2019-02-12T05:19:19.876Z,96757.52
2019-02-12T05:21:53.891Z,96763.63
2019-02-12T05:24:33.676Z,96761.98
2019-02-12T05:27:04.871Z,96761.89
2019-02-12T05:29:36.960Z,96768.09
2019-02-12T05:32:10.996Z,96772.21
2019-02-12T05:34:44.603Z,96776.35
2019-02-12T05:37:16.348Z,96760.67
2019-02-12T05:39:48.012Z,96770.72
2019-02-12T05:42:20.862Z,96780.52
2019-02-12T05:44:52.059Z,96789.77
2019-02-12T05:47:26.152Z,96786.45
2019-02-12T05:50:02.009Z,96796.02
2019-02-12T05:52:37.755Z,96791.95
2019-02-12T05:55:10.535Z,96798.12
2019-02-12T05:57:43.374Z,96785.23
2019-02-12T06:00:17.252Z,96797.76
2019-02-12T06:02:51.206Z,96802.86
2019-02-12T06:05:27.618Z,96794.86
2019-02-12T06:08:00.574Z,96806.55
2019-02-12T06:10:32.505Z,96805.01
2019-02-12T06:13:06.144Z,96806.55
2019-02-12T06:15:40.762Z,96810.22
2019-02-12T06:18:14.239Z,96806.91
2019-02-12T06:20:45.501Z,96803.49
2019-02-12T06:23:18.990Z,96801.48
2019-02-12T06:25:51.232Z,96805.21
2019-02-12T06:28:23.196Z,96808.42
2019-02-12T06:30:54.451Z,96812.20
2019-02-12T06:33:28.198Z,96816.94
2019-02-12T06:36:01.338Z,96828.73
2019-02-12T06:38:35.376Z,96824.88
2019-02-12T06:41:09.593Z,96821.27
2019-02-12T06:43:43.318Z,96819.73
2019-02-12T06:46:14.495Z,96840.30
2019-02-12T06:48:49.954Z,96841.81
2019-02-12T06:51:22.633Z,96836.97
2019-02-12T06:53:54.421Z,96841.41
2019-02-12T06:56:29.140Z,96847.20
2019-02-12T06:59:03.129Z,96852.10
2019-02-12T07:01:35.341Z,96852.37
2019-02-12T07:04:20.602Z,96859.46
2019-02-12T07:07:19.250Z,96869.54
2019-02-12T07:09:57.639Z,96860.53
2019-02-12T07:12:53.060Z,96859.22
2019-02-12T07:15:46.771Z,96856.32
2019-02-12T07:19:00.376Z,96856.66
2019-02-12T07:21:55.835Z,96865.77
2019-02-12T07:25:17.125Z,96881.30
2019-02-12T07:28:35.654Z,96873.37
2019-02-12T07:31:41.595Z,96874.59
2019-02-12T07:35:00.866Z,96891.08
2019-02-12T07:38:19.341Z,96880.94
2019-02-12T07:41:20.706Z,96893.55
2019-02-12T07:44:31.793Z,96885.15
2019-02-12T07:47:45.492Z,96881.77
2019-02-12T07:50:49.876Z,96897.00
2019-02-12T07:53:34.244Z,96903.58
2019-02-12T07:56:32.422Z,96923.58
2019-02-12T07:59:30.079Z,96930.88
2019-02-12T08:02:33.883Z,96923.46
2019-02-12T08:05:43.046Z,96919.23
2019-02-12T08:09:07.274Z,96914.52
2019-02-12T08:12:13.875Z,96921.82
2019-02-12T08:15:17.723Z,96917.23
2019-02-12T08:18:37.613Z,96907.40
2019-02-12T08:21:31.470Z,96924.89
2019-02-12T08:24:47.602Z,96935.70
2019-02-12T08:28:13.840Z,96936.92
2019-02-12T08:31:24.492Z,96940.30
2019-02-12T08:34:18.487Z,96952.84
2019-02-12T08:37:17.996Z,96964.52
2019-02-12T08:40:30.453Z,96939.56
2019-02-12T08:43:46.945Z,96934.33
2019-02-12T08:46:58.278Z,96948.75
2019-02-12T08:50:12.272Z,96951.41
2019-02-12T08:52:56.530Z,96968.11
2019-02-12T08:56:19.685Z,96964.64
2019-02-12T08:59:17.047Z,96971.56
2019-02-12T09:02:15.263Z,96980.40
2019-02-12T09:05:28.494Z,96981.19
2019-02-12T09:08:28.930Z,96976.88
2019-02-12T09:11:38.584Z,96979.55
2019-02-12T09:14:48.994Z,96980.67
2019-02-12T09:17:58.071Z,96982.67
2019-02-12T09:21:16.404Z,96995.23
2019-02-12T09:24:32.309Z,96989.23
2019-02-12T09:27:14.839Z,97000.16
2019-02-12T09:30:34.458Z,96997.78
2019-02-12T09:33:34.623Z,96991.41
2019-02-12T09:36:35.838Z,97010.31
2019-02-12T09:39:47.969Z,97006.19
2019-02-12T09:43:04.906Z,97001.90
2019-02-12T09:46:25.997Z,97001.08
2019-02-12T09:49:40.910Z,97008.39
2019-02-12T09:53:08.383Z,97011.94
2019-02-12T09:56:05.698Z,97002.58
2019-02-12T09:59:01.450Z,97004.14
2019-02-12T10:01:59.891Z,97005.16
2019-02-12T10:05:14.528Z,97012.11
2019-02-12T10:08:28.646Z,97014.81
2019-02-12T10:11:54.550Z,97004.48
2019-02-12T10:15:05.332Z,97002.86
2019-02-12T10:18:05.960Z,96998.64
2019-02-12T10:21:08.718Z,97006.05
2019-02-12T10:24:19.033Z,97008.48
2019-02-12T10:26:47.697Z,97005.39
2019-02-12T10:29:33.107Z,97022.77
2019-02-12T10:32:08.733Z,97008.18
2019-02-12T10:34:40.634Z,97014.12
2019-02-12T10:37:12.128Z,97012.05
2019-02-12T10:39:45.188Z,97015.54
2019-02-12T10:42:19.276Z,97016.50
2019-02-12T10:44:53.029Z,97012.33
2019-02-12T10:47:24.345Z,97009.98
2019-02-12T10:49:56.184Z,97015.50
2019-02-12T10:52:30.069Z,97015.34
2019-02-12T10:55:03.244Z,97009.14
2019-02-12T10:57:34.753Z,97015.52
2019-02-12T11:00:12.508Z,97040.87
2019-02-12T11:02:45.720Z,97020.20
2019-02-12T11:05:17.453Z,97021.38
2019-02-12T11:07:48.969Z,97022.30
2019-02-12T11:10:22.413Z,97026.75
2019-02-12T11:12:54.977Z,97026.80
2019-02-12T11:15:26.186Z,97016.08
2019-02-12T11:17:58.978Z,97031.23
2019-02-12T11:20:30.431Z,97035.41
2019-02-12T11:23:04.487Z,97041.77
2019-02-12T11:25:38.458Z,97040.80
2019-02-12T11:28:12.481Z,97030.56
2019-02-12T11:30:44.905Z,97028.36
2019-02-12T11:33:17.534Z,97020.23
2019-02-12T11:35:48.709Z,97025.52
2019-02-12T11:38:24.192Z,97018.53
2019-02-12T11:40:56.780Z,97022.22
2019-02-12T11:43:30.715Z,97023.77
2019-02-12T11:46:04.808Z,97026.45
2019-02-12T11:48:38.737Z,97026.27
2019-02-12T11:51:10.428Z,97034.97
2019-02-12T11:53:43.810Z,97031.46
2019-02-12T11:56:19.249Z,97031.50
2019-02-12T11:58:51.652Z,97024.16
2019-02-12T12:01:25.999Z,97030.09
2019-02-12T12:04:01.656Z,97021.16
2019-02-12T12:06:35.360Z,97016.80
2019-02-12T12:09:12.710Z,97006.41
2019-02-12T12:11:45.062Z,97006.57
2019-02-12T12:14:18.538Z,97028.17
2019-02-12T12:16:49.741Z,97027.00
2019-02-12T12:19:23.846Z,97029.50
2019-02-12T12:21:57.637Z,97041.42
2019-02-12T12:24:33.320Z,97039.59
2019-02-12T12:27:04.801Z,97033.33
2019-02-12T12:29:38.784Z,97043.00
2019-02-12T12:32:10.384Z,97043.71
2019-02-12T12:34:41.721Z,97035.80
2019-02-12T12:37:15.827Z,97037.08
2019-02-12T12:39:48.837Z,97030.63
2019-02-12T12:42:22.858Z,97037.39
2019-02-12T12:44:54.810Z,97021.73
2019-02-12T12:47:28.887Z,97014.75
2019-02-12T12:50:02.012Z,97028.83
2019-02-12T12:52:33.231Z,97029.04
2019-02-12T12:55:06.422Z,97033.00
2019-02-12T12:57:41.845Z,97030.19
2019-02-12T13:00:12.477Z,97039.68
2019-02-12T13:02:45.916Z,97033.76
2019-02-12T13:05:19.924Z,97051.87
2019-02-12T13:07:52.146Z,97049.88
2019-02-12T13:10:25.136Z,97050.86
2019-02-12T13:12:56.366Z,97057.04
2019-02-12T13:15:30.189Z,97060.53
2019-02-12T13:18:03.759Z,97068.13
2019-02-12T13:20:34.952Z,97060.03
2019-02-12T13:23:10.636Z,97061.98
2019-02-12T13:25:44.825Z,97055.39
2019-02-12T13:28:16.852Z,97061.70
2019-02-12T13:30:48.059Z,97069.17
2019-02-12T13:33:20.853Z,97063.10
2019-02-12T13:35:53.101Z,97060.64
2019-02-12T13:38:27.093Z,97054.75
2019-02-12T13:41:02.614Z,97057.92
2019-02-12T13:43:36.080Z,97071.08
2019-02-12T13:46:10.631Z,97064.34
2019-02-12T13:48:44.097Z,97068.87
2019-02-12T13:51:17.918Z,97072.04
2019-02-12T13:53:51.401Z,97085.56
2019-02-12T13:56:25.222Z,97096.13
2019-02-12T13:59:00.793Z,97091.70
2019-02-12T14:01:33.078Z,97103.63
2019-02-12T14:04:06.255Z,97115.88
2019-02-12T14:06:40.251Z,97116.80
2019-02-12T14:09:14.266Z,97119.19
2019-02-12T14:11:45.553Z,97129.16
2019-02-12T14:14:17.132Z,97132.07
2019-02-12T14:16:48.368Z,97126.45
2019-02-12T14:19:21.285Z,97124.20
2019-02-12T14:21:52.491Z,97130.85
2019-02-12T14:24:23.665Z,97138.33
2019-02-12T14:26:54.875Z,97132.80
2019-02-12T14:29:28.310Z,97135.89
2019-02-12T14:32:02.217Z,97139.58
2019-02-12T14:34:35.241Z,97142.07
2019-02-12T14:37:07.436Z,97140.95
2019-02-12T14:39:38.715Z,97149.05
2019-02-12T14:42:11.541Z,97145.52
2019-02-12T14:44:45.536Z,97151.00
2019-02-12T14:47:16.851Z,97148.53
2019-02-12T14:49:48.061Z,97148.71
2019-02-12T14:52:21.590Z,97144.69
2019-02-12T14:54:55.588Z,97150.84
2019-02-12T14:57:29.596Z,97143.78
2019-02-12T15:00:01.789Z,97148.59
2019-02-12T15:02:34.644Z,97143.18
2019-02-12T15:05:10.793Z,97152.11
2019-02-12T15:07:42.866Z,97157.89
2019-02-12T15:10:16.751Z,97154.94
2019-02-12T15:12:48.386Z,97154.28
2019-02-12T15:15:28.876Z,97164.66
2019-02-12T15:18:01.489Z,97161.75
2019-02-12T15:20:35.632Z,97159.99
2019-02-12T15:23:10.569Z,97158.82
2019-02-12T15:25:45.220Z,97171.84
2019-02-12T15:28:16.668Z,97163.92
2019-02-12T15:30:48.199Z,97171.00
2019-02-12T15:33:21.474Z,97171.69
2019-02-12T15:35:52.694Z,97183.64
2019-02-12T15:38:26.695Z,97179.33
2019-02-12T15:41:02.186Z,97181.80
2019-02-12T15:43:34.977Z,97190.98
2019-02-12T15:46:06.532Z,97197.95
2019-02-12T15:48:39.573Z,97202.77
2019-02-12T15:51:10.960Z,97208.30
2019-02-12T15:53:42.212Z,97213.03
2019-02-12T15:56:13.435Z,97203.52
2019-02-12T15:58:45.415Z,97211.06
2019-02-12T16:01:17.736Z,97217.77
2019-02-12T16:03:51.841Z,97218.23
2019-02-12T16:06:24.636Z,97228.44
2019-02-12T16:09:00.201Z,97230.73
2019-02-12T16:11:32.680Z,97235.45
2019-02-12T16:14:03.960Z,97239.11
2019-02-12T16:16:35.171Z,97251.08
2019-02-12T16:19:07.854Z,97257.26
2019-02-12T16:21:39.739Z,97263.13
2019-02-12T16:24:11.879Z,97276.47
2019-02-12T16:26:44.909Z,97278.99
2019-02-12T16:29:16.109Z,97290.07
2019-02-12T16:31:48.896Z,97296.55
2019-02-12T16:34:20.858Z,97298.96
2019-02-12T16:36:55.173Z,97304.69
2019-02-12T16:39:27.988Z,97304.13
2019-02-12T16:41:59.518Z,97309.52
2019-02-12T16:44:32.924Z,97314.64
2019-02-12T16:47:06.862Z,97319.14
2019-02-12T16:49:41.664Z,97336.88
2019-02-12T16:52:20.719Z,97329.50
2019-02-12T16:54:48.890Z,97332.32
2019-02-12T16:57:20.079Z,97331.92
2019-02-12T16:59:53.991Z,97335.56
2019-02-12T17:02:28.399Z,97341.92
2019-02-12T17:05:02.034Z,97346.98
2019-02-12T17:07:36.082Z,97348.66
2019-02-12T17:10:10.371Z,97356.47
2019-02-12T17:12:44.063Z,97356.20
2019-02-12T17:15:18.050Z,97368.96
2019-02-12T17:17:49.492Z,97378.14
2019-02-12T17:20:23.145Z,97383.00
2019-02-12T17:22:55.388Z,97383.63
2019-02-12T17:25:28.045Z,97397.02
2019-02-12T17:28:01.161Z,97402.15
2019-02-12T17:30:32.727Z,97401.57
2019-02-12T17:33:05.519Z,97401.87
2019-02-12T17:35:37.140Z,97408.99
2019-02-12T17:38:11.316Z,97404.73
2019-02-12T17:40:43.233Z,97411.60
2019-02-12T17:43:16.215Z,97418.88
2019-02-12T17:45:49.214Z,97424.76
2019-02-12T17:48:21.431Z,97424.84
2019-02-12T17:50:55.225Z,97426.38
2019-02-12T17:53:26.481Z,97425.54
2019-02-12T17:56:00.637Z,97433.38
2019-02-12T17:58:34.219Z,97438.94
2019-02-12T18:01:06.174Z,97447.86
2019-02-12T18:03:39.221Z,97449.70
2019-02-12T18:06:13.594Z,97449.31
2019-02-12T18:08:44.771Z,97455.06
2019-02-12T18:11:18.228Z,97454.72
2019-02-12T18:13:52.223Z,97456.97
2019-02-12T18:16:25.438Z,97451.50
2019-02-12T18:19:02.147Z,97452.00
2019-02-12T18:21:33.339Z,97456.28
2019-02-12T18:24:07.441Z,97456.40
2019-02-12T18:26:38.764Z,97458.92
2019-02-12T18:29:10.261Z,97466.58
2019-02-12T18:31:43.449Z,97465.08
2019-02-12T18:34:15.661Z,97470.33
2019-02-12T18:36:51.095Z,97468.19
2019-02-12T18:39:23.555Z,97463.27
2019-02-12T18:41:55.327Z,97465.08
2019-02-12T18:44:27.383Z,97471.20
2019-02-12T18:46:59.384Z,97479.70
2019-02-12T18:49:32.520Z,97471.52
2019-02-12T18:52:03.735Z,97469.72
2019-02-12T18:54:34.910Z,97470.44
2019-02-12T18:57:06.192Z,97473.56
2019-02-12T18:59:39.441Z,97474.15
2019-02-12T19:02:13.434Z,97481.17
2019-02-12T19:04:45.951Z,97488.36
2019-02-12T19:07:18.673Z,97494.28
2019-02-12T19:09:51.562Z,97499.94
2019-02-12T19:12:24.716Z,97496.22
2019-02-12T19:14:58.074Z,97500.77
2019-02-12T19:17:29.584Z,97501.09
2019-02-12T19:20:02.799Z,97508.98
2019-02-12T19:22:46.895Z,97501.19
2019-02-12T19:25:21.372Z,97509.37
2019-02-12T19:27:53.619Z,97517.72
2019-02-12T19:30:27.615Z,97518.67
2019-02-12T19:33:03.518Z,97512.39
2019-02-12T19:35:36.243Z,97515.91
2019-02-12T19:38:09.703Z,97521.09
2019-02-12T19:40:42.653Z,97515.45
2019-02-12T19:43:15.550Z,97520.46
2019-02-12T19:45:49.029Z,97527.52
2019-02-12T19:48:22.919Z,97530.70
2019-02-12T19:50:55.888Z,97539.41
2019-02-12T19:53:27.804Z,97550.17
2019-02-12T19:55:59.060Z,97553.41
2019-02-12T19:58:31.957Z,97554.59
2019-02-12T20:01:05.529Z,97556.60
2019-02-12T20:03:37.747Z,97562.16
2019-02-12T20:06:12.205Z,97561.97
2019-02-12T20:08:45.818Z,97565.12
2019-02-12T20:11:19.975Z,97567.52
2019-02-12T20:13:54.372Z,97570.05
2019-02-12T20:16:28.830Z,97571.73
2019-02-12T20:19:02.168Z,97571.47
2019-02-12T20:21:37.747Z,97581.86
2019-02-12T20:24:12.130Z,97587.41
2019-02-12T20:26:47.038Z,97585.40
2019-02-12T20:29:20.888Z,97583.88
2019-02-12T20:31:56.077Z,97584.16
2019-02-12T20:34:29.036Z,97592.61
2019-02-12T20:37:00.392Z,97594.23
2019-02-12T20:39:31.789Z,97595.95
2019-02-12T20:42:05.129Z,97595.77
2019-02-12T20:44:42.885Z,97601.00
2019-02-12T20:47:17.197Z,97601.29
2019-02-12T20:49:49.036Z,97585.27
2019-02-12T20:52:20.976Z,97593.75
2019-02-12T20:54:55.948Z,97599.97
2019-02-12T20:57:30.892Z,97597.28
2019-02-12T21:00:08.884Z,97595.11
2019-02-12T21:02:41.565Z,97594.59
2019-02-12T21:05:15.191Z,97591.75
2019-02-12T21:07:46.976Z,97593.82
2019-02-12T21:10:21.725Z,97590.38
2019-02-12T21:12:56.876Z,97593.72
2019-02-12T21:15:29.725Z,97585.36
2019-02-12T21:18:04.606Z,97594.50
2019-02-12T21:20:38.554Z,97586.83
2019-02-12T21:23:12.601Z,97580.64
2019-02-12T21:25:45.318Z,97581.31
2019-02-12T21:28:19.430Z,97575.58
2019-02-12T21:30:54.203Z,97571.73
2019-02-12T21:33:28.803Z,97571.73
2019-02-12T21:36:01.445Z,97575.03
2019-02-12T21:38:39.152Z,97577.14
2019-02-12T21:41:12.958Z,97584.33
2019-02-12T21:43:46.369Z,97581.87
2019-02-12T21:46:20.787Z,97578.73
2019-02-12T21:48:52.399Z,97584.10
2019-02-12T21:51:25.657Z,97588.54
2019-02-12T21:54:02.043Z,97589.41
2019-02-12T21:56:33.353Z,97591.65
2019-02-12T21:59:06.299Z,97595.14
2019-02-12T22:01:39.272Z,97590.16
2019-02-12T22:04:11.352Z,97588.19
2019-02-12T22:06:45.354Z,97591.69
2019-02-12T22:09:19.375Z,97602.20
2019-02-12T22:11:50.796Z,97604.15
2019-02-12T22:14:23.592Z,97607.35
2019-02-12T22:16:55.479Z,97604.86
2019-02-12T22:19:31.007Z,97604.80
2019-02-12T22:22:03.426Z,97609.20
2019-02-12T22:24:37.468Z,97611.14
2019-02-12T22:27:16.287Z,97603.30
2019-02-12T22:29:49.410Z,97605.90
2019-02-12T22:32:22.428Z,97609.91
2019-02-12T22:34:55.598Z,97612.77
2019-02-12T22:37:27.584Z,97616.81
2019-02-12T22:39:58.771Z,97614.77
2019-02-12T22:42:32.026Z,97617.75
2019-02-12T22:45:03.376Z,97618.39
2019-02-12T22:47:34.543Z,97614.28
2019-02-12T22:50:10.245Z,97621.54
2019-02-12T22:52:42.041Z,97620.80
2019-02-12T22:55:15.944Z,97613.64
2019-02-12T22:58:41.889Z,97614.06
2019-02-12T23:01:15.697Z,97622.19
2019-02-12T23:03:49.885Z,97629.58
2019-02-12T23:06:23.611Z,97630.32
2019-02-12T23:08:55.670Z,97632.16
2019-02-12T23:11:29.936Z,97625.39
2019-02-12T23:14:02.565Z,97623.94
2019-02-12T23:16:35.723Z,97617.39
2019-02-12T23:19:10.197Z,97611.89
2019-02-12T23:21:44.043Z,97611.50
2019-02-12T23:24:17.678Z,97613.87
2019-02-12T23:26:48.888Z,97613.25
2019-02-12T23:29:23.657Z,97617.59
2019-02-12T23:31:56.614Z,97613.73
2019-02-12T23:34:29.802Z,97615.23
2019-02-12T23:37:03.772Z,97615.93
2019-02-12T23:39:37.904Z,97621.67
2019-02-12T23:42:09.135Z,97621.77
2019-02-12T23:44:44.393Z,97618.81
2019-02-12T23:47:18.374Z,97618.33
2019-02-12T23:49:51.622Z,97613.19
2019-02-12T23:52:24.831Z,97616.62
2019-02-12T23:54:58.646Z,97621.22
2019-02-12T23:57:31.447Z,97617.42
